sensor_id;sensor_type;location;lat;lon;timestamp;P1;durP1;ratioP1;P2;durP2;ratioP2
28003;SDS011;15330;51.234;6.754;2024-02-21T00:01:45;32.92;;;14.40;;
28003;SDS011;15330;51.234;6.754;2024-02-21T00:04:10;32.08;;;13.15;;
28003;SDS011;15330;51.234;6.754;2024-02-21T00:06:35;30.45;;;12.73;;
28003;SDS011;15330;51.234;6.754;2024-02-21T00:09:01;33.03;;;13.95;;
28003;SDS011;15330;51.234;6.754;2024-02-21T00:11:26;37.35;;;13.70;;
28003;SDS011;15330;51.234;6.754;2024-02-21T00:13:51;32.80;;;14.00;;
28003;SDS011;15330;51.234;6.754;2024-02-21T00:16:17;37.38;;;13.48;;
28003;SDS011;15330;51.234;6.754;2024-02-21T00:18:43;29.38;;;12.73;;
28003;SDS011;15330;51.234;6.754;2024-02-21T00:21:08;38.97;;;14.05;;
28003;SDS011;15330;51.234;6.754;2024-02-21T00:23:34;33.35;;;13.90;;
28003;SDS011;15330;51.234;6.754;2024-02-21T00:25:59;40.50;;;14.20;;
28003;SDS011;15330;51.234;6.754;2024-02-21T00:28:24;39.50;;;14.13;;
28003;SDS011;15330;51.234;6.754;2024-02-21T00:30:50;29.95;;;13.73;;
28003;SDS011;15330;51.234;6.754;2024-02-21T00:33:19;34.92;;;13.68;;
28003;SDS011;15330;51.234;6.754;2024-02-21T00:35:44;37.08;;;12.98;;
28003;SDS011;15330;51.234;6.754;2024-02-21T00:38:09;31.17;;;12.55;;
28003;SDS011;15330;51.234;6.754;2024-02-21T00:40:35;31.83;;;13.57;;
28003;SDS011;15330;51.234;6.754;2024-02-21T00:43:00;34.83;;;12.98;;
28003;SDS011;15330;51.234;6.754;2024-02-21T00:45:26;34.22;;;14.20;;
28003;SDS011;15330;51.234;6.754;2024-02-21T00:47:51;38.55;;;14.07;;
28003;SDS011;15330;51.234;6.754;2024-02-21T00:50:17;33.40;;;13.30;;
28003;SDS011;15330;51.234;6.754;2024-02-21T00:52:42;31.45;;;13.43;;
28003;SDS011;15330;51.234;6.754;2024-02-21T00:55:08;34.30;;;13.32;;
28003;SDS011;15330;51.234;6.754;2024-02-21T00:57:34;41.03;;;14.15;;
28003;SDS011;15330;51.234;6.754;2024-02-21T00:59:59;37.10;;;13.75;;
28003;SDS011;15330;51.234;6.754;2024-02-21T01:02:25;30.85;;;13.48;;
28003;SDS011;15330;51.234;6.754;2024-02-21T01:04:50;30.08;;;13.68;;
28003;SDS011;15330;51.234;6.754;2024-02-21T01:07:15;36.47;;;13.35;;
28003;SDS011;15330;51.234;6.754;2024-02-21T01:09:41;39.38;;;13.73;;
28003;SDS011;15330;51.234;6.754;2024-02-21T01:12:06;31.10;;;13.15;;
28003;SDS011;15330;51.234;6.754;2024-02-21T01:14:31;30.77;;;13.23;;
28003;SDS011;15330;51.234;6.754;2024-02-21T01:16:57;34.25;;;13.20;;
28003;SDS011;15330;51.234;6.754;2024-02-21T01:19:22;39.13;;;13.38;;
28003;SDS011;15330;51.234;6.754;2024-02-21T01:21:47;30.60;;;13.32;;
28003;SDS011;15330;51.234;6.754;2024-02-21T01:24:13;30.38;;;12.77;;
28003;SDS011;15330;51.234;6.754;2024-02-21T01:26:39;35.30;;;13.35;;
28003;SDS011;15330;51.234;6.754;2024-02-21T01:29:05;39.03;;;13.65;;
28003;SDS011;15330;51.234;6.754;2024-02-21T01:31:30;38.85;;;15.00;;
28003;SDS011;15330;51.234;6.754;2024-02-21T01:33:56;36.63;;;12.93;;
28003;SDS011;15330;51.234;6.754;2024-02-21T01:36:21;32.33;;;12.75;;
28003;SDS011;15330;51.234;6.754;2024-02-21T01:38:46;38.30;;;13.70;;
28003;SDS011;15330;51.234;6.754;2024-02-21T01:41:12;39.55;;;14.23;;
28003;SDS011;15330;51.234;6.754;2024-02-21T01:43:37;29.27;;;11.98;;
28003;SDS011;15330;51.234;6.754;2024-02-21T01:46:02;32.60;;;14.82;;
28003;SDS011;15330;51.234;6.754;2024-02-21T01:48:28;44.63;;;13.55;;
28003;SDS011;15330;51.234;6.754;2024-02-21T01:50:54;32.40;;;13.00;;
28003;SDS011;15330;51.234;6.754;2024-02-21T01:53:22;38.92;;;13.07;;
28003;SDS011;15330;51.234;6.754;2024-02-21T01:55:50;33.72;;;13.02;;
28003;SDS011;15330;51.234;6.754;2024-02-21T01:58:16;41.03;;;13.73;;
28003;SDS011;15330;51.234;6.754;2024-02-21T02:00:44;34.28;;;13.45;;
28003;SDS011;15330;51.234;6.754;2024-02-21T02:03:11;36.63;;;13.73;;
28003;SDS011;15330;51.234;6.754;2024-02-21T02:05:48;24.85;;;11.45;;
28003;SDS011;15330;51.234;6.754;2024-02-21T02:08:16;33.60;;;13.13;;
28003;SDS011;15330;51.234;6.754;2024-02-21T02:10:42;33.22;;;13.48;;
28003;SDS011;15330;51.234;6.754;2024-02-21T02:13:08;31.60;;;12.10;;
28003;SDS011;15330;51.234;6.754;2024-02-21T02:15:40;34.35;;;12.15;;
28003;SDS011;15330;51.234;6.754;2024-02-21T02:18:07;33.40;;;11.95;;
28003;SDS011;15330;51.234;6.754;2024-02-21T02:20:32;30.45;;;11.75;;
28003;SDS011;15330;51.234;6.754;2024-02-21T02:23:03;34.97;;;11.63;;
28003;SDS011;15330;51.234;6.754;2024-02-21T02:25:51;41.78;;;12.63;;
28003;SDS011;15330;51.234;6.754;2024-02-21T02:28:19;34.40;;;12.45;;
28003;SDS011;15330;51.234;6.754;2024-02-21T02:30:46;26.40;;;11.43;;
28003;SDS011;15330;51.234;6.754;2024-02-21T02:33:12;28.40;;;11.63;;
28003;SDS011;15330;51.234;6.754;2024-02-21T02:35:37;34.28;;;12.07;;
28003;SDS011;15330;51.234;6.754;2024-02-21T02:38:03;25.42;;;11.80;;
28003;SDS011;15330;51.234;6.754;2024-02-21T02:40:29;43.38;;;11.98;;
28003;SDS011;15330;51.234;6.754;2024-02-21T02:42:58;33.53;;;12.30;;
28003;SDS011;15330;51.234;6.754;2024-02-21T02:45:24;30.98;;;12.30;;
28003;SDS011;15330;51.234;6.754;2024-02-21T02:47:51;33.50;;;12.73;;
28003;SDS011;15330;51.234;6.754;2024-02-21T02:50:20;34.67;;;13.13;;
28003;SDS011;15330;51.234;6.754;2024-02-21T02:52:45;33.00;;;11.88;;
28003;SDS011;15330;51.234;6.754;2024-02-21T02:55:11;32.63;;;12.18;;
28003;SDS011;15330;51.234;6.754;2024-02-21T02:57:37;35.08;;;11.10;;
28003;SDS011;15330;51.234;6.754;2024-02-21T03:00:03;24.42;;;11.40;;
28003;SDS011;15330;51.234;6.754;2024-02-21T03:02:29;24.15;;;11.30;;
28003;SDS011;15330;51.234;6.754;2024-02-21T03:04:55;31.27;;;11.85;;
28003;SDS011;15330;51.234;6.754;2024-02-21T03:07:20;26.48;;;12.00;;
28003;SDS011;15330;51.234;6.754;2024-02-21T03:09:45;28.52;;;11.55;;
28003;SDS011;15330;51.234;6.754;2024-02-21T03:12:11;33.83;;;11.23;;
28003;SDS011;15330;51.234;6.754;2024-02-21T03:14:36;27.20;;;11.65;;
28003;SDS011;15330;51.234;6.754;2024-02-21T03:17:02;26.13;;;12.50;;
28003;SDS011;15330;51.234;6.754;2024-02-21T03:19:28;33.78;;;11.75;;
28003;SDS011;15330;51.234;6.754;2024-02-21T03:21:54;30.45;;;11.60;;
28003;SDS011;15330;51.234;6.754;2024-02-21T03:24:19;37.95;;;11.95;;
28003;SDS011;15330;51.234;6.754;2024-02-21T03:26:45;31.45;;;11.35;;
28003;SDS011;15330;51.234;6.754;2024-02-21T03:29:13;31.13;;;11.20;;
28003;SDS011;15330;51.234;6.754;2024-02-21T03:31:40;31.92;;;10.82;;
28003;SDS011;15330;51.234;6.754;2024-02-21T03:34:05;29.40;;;11.63;;
28003;SDS011;15330;51.234;6.754;2024-02-21T03:36:30;39.03;;;11.52;;
28003;SDS011;15330;51.234;6.754;2024-02-21T03:38:56;24.92;;;11.13;;
28003;SDS011;15330;51.234;6.754;2024-02-21T03:41:21;24.02;;;10.98;;
28003;SDS011;15330;51.234;6.754;2024-02-21T03:43:47;27.42;;;11.20;;
28003;SDS011;15330;51.234;6.754;2024-02-21T03:46:12;27.85;;;10.52;;
28003;SDS011;15330;51.234;6.754;2024-02-21T03:48:38;23.70;;;10.82;;
28003;SDS011;15330;51.234;6.754;2024-02-21T03:51:03;28.67;;;11.82;;
28003;SDS011;15330;51.234;6.754;2024-02-21T03:53:29;26.25;;;9.93;;
28003;SDS011;15330;51.234;6.754;2024-02-21T03:55:55;26.80;;;10.80;;
28003;SDS011;15330;51.234;6.754;2024-02-21T03:58:21;27.85;;;10.63;;
28003;SDS011;15330;51.234;6.754;2024-02-21T04:00:47;23.08;;;10.10;;
28003;SDS011;15330;51.234;6.754;2024-02-21T04:03:12;25.45;;;9.93;;
28003;SDS011;15330;51.234;6.754;2024-02-21T04:05:38;25.52;;;9.95;;
28003;SDS011;15330;51.234;6.754;2024-02-21T04:08:07;21.00;;;9.05;;
28003;SDS011;15330;51.234;6.754;2024-02-21T04:10:33;23.95;;;9.35;;
28003;SDS011;15330;51.234;6.754;2024-02-21T04:12:58;25.83;;;10.73;;
28003;SDS011;15330;51.234;6.754;2024-02-21T04:15:24;28.35;;;9.68;;
28003;SDS011;15330;51.234;6.754;2024-02-21T04:17:49;25.00;;;10.25;;
28003;SDS011;15330;51.234;6.754;2024-02-21T04:20:16;23.95;;;9.52;;
28003;SDS011;15330;51.234;6.754;2024-02-21T04:22:45;24.85;;;9.13;;
28003;SDS011;15330;51.234;6.754;2024-02-21T04:25:11;23.27;;;10.30;;
28003;SDS011;15330;51.234;6.754;2024-02-21T04:27:37;22.73;;;9.13;;
28003;SDS011;15330;51.234;6.754;2024-02-21T04:30:03;26.23;;;9.43;;
28003;SDS011;15330;51.234;6.754;2024-02-21T04:32:29;18.00;;;9.43;;
28003;SDS011;15330;51.234;6.754;2024-02-21T04:34:55;25.52;;;9.38;;
28003;SDS011;15330;51.234;6.754;2024-02-21T04:37:20;23.17;;;10.13;;
28003;SDS011;15330;51.234;6.754;2024-02-21T04:39:45;22.02;;;9.00;;
28003;SDS011;15330;51.234;6.754;2024-02-21T04:42:11;21.70;;;9.55;;
28003;SDS011;15330;51.234;6.754;2024-02-21T04:44:37;19.08;;;9.20;;
28003;SDS011;15330;51.234;6.754;2024-02-21T04:47:02;24.60;;;9.13;;
28003;SDS011;15330;51.234;6.754;2024-02-21T04:49:28;19.05;;;8.57;;
28003;SDS011;15330;51.234;6.754;2024-02-21T04:51:54;28.92;;;9.98;;
28003;SDS011;15330;51.234;6.754;2024-02-21T04:54:20;20.88;;;8.55;;
28003;SDS011;15330;51.234;6.754;2024-02-21T04:56:45;25.80;;;9.15;;
28003;SDS011;15330;51.234;6.754;2024-02-21T04:59:10;21.30;;;9.45;;
28003;SDS011;15330;51.234;6.754;2024-02-21T05:01:36;20.63;;;8.88;;
28003;SDS011;15330;51.234;6.754;2024-02-21T05:04:01;22.90;;;9.55;;
28003;SDS011;15330;51.234;6.754;2024-02-21T05:06:27;27.70;;;8.77;;
28003;SDS011;15330;51.234;6.754;2024-02-21T05:08:52;27.30;;;9.65;;
28003;SDS011;15330;51.234;6.754;2024-02-21T05:11:20;27.15;;;9.07;;
28003;SDS011;15330;51.234;6.754;2024-02-21T05:13:45;23.38;;;9.07;;
28003;SDS011;15330;51.234;6.754;2024-02-21T05:16:11;22.17;;;9.52;;
28003;SDS011;15330;51.234;6.754;2024-02-21T05:18:36;18.85;;;8.50;;
28003;SDS011;15330;51.234;6.754;2024-02-21T05:21:02;20.92;;;8.90;;
28003;SDS011;15330;51.234;6.754;2024-02-21T05:23:27;23.48;;;9.20;;
28003;SDS011;15330;51.234;6.754;2024-02-21T05:25:52;23.60;;;8.98;;
28003;SDS011;15330;51.234;6.754;2024-02-21T05:28:18;23.95;;;9.13;;
28003;SDS011;15330;51.234;6.754;2024-02-21T05:30:43;18.20;;;8.23;;
28003;SDS011;15330;51.234;6.754;2024-02-21T05:33:09;20.30;;;8.10;;
28003;SDS011;15330;51.234;6.754;2024-02-21T05:35:34;20.38;;;8.48;;
28003;SDS011;15330;51.234;6.754;2024-02-21T05:38:00;20.88;;;10.18;;
28003;SDS011;15330;51.234;6.754;2024-02-21T05:40:25;22.17;;;8.77;;
28003;SDS011;15330;51.234;6.754;2024-02-21T05:42:51;22.17;;;8.13;;
28003;SDS011;15330;51.234;6.754;2024-02-21T05:45:17;19.98;;;8.38;;
28003;SDS011;15330;51.234;6.754;2024-02-21T05:47:43;17.02;;;7.75;;
28003;SDS011;15330;51.234;6.754;2024-02-21T05:50:09;23.90;;;7.72;;
28003;SDS011;15330;51.234;6.754;2024-02-21T05:52:35;21.27;;;7.88;;
28003;SDS011;15330;51.234;6.754;2024-02-21T05:55:00;19.63;;;8.20;;
28003;SDS011;15330;51.234;6.754;2024-02-21T05:57:25;22.45;;;7.82;;
28003;SDS011;15330;51.234;6.754;2024-02-21T05:59:51;24.60;;;8.15;;
28003;SDS011;15330;51.234;6.754;2024-02-21T06:02:16;20.67;;;8.18;;
28003;SDS011;15330;51.234;6.754;2024-02-21T06:04:42;19.23;;;7.82;;
28003;SDS011;15330;51.234;6.754;2024-02-21T06:07:08;16.05;;;7.75;;
28003;SDS011;15330;51.234;6.754;2024-02-21T06:09:33;20.60;;;8.30;;
28003;SDS011;15330;51.234;6.754;2024-02-21T06:11:59;19.58;;;7.45;;
28003;SDS011;15330;51.234;6.754;2024-02-21T06:14:24;19.20;;;8.27;;
28003;SDS011;15330;51.234;6.754;2024-02-21T06:16:49;22.60;;;7.53;;
28003;SDS011;15330;51.234;6.754;2024-02-21T06:19:15;19.30;;;7.55;;
28003;SDS011;15330;51.234;6.754;2024-02-21T06:21:40;16.85;;;8.27;;
28003;SDS011;15330;51.234;6.754;2024-02-21T06:24:06;18.67;;;8.15;;
28003;SDS011;15330;51.234;6.754;2024-02-21T06:26:31;27.85;;;7.47;;
28003;SDS011;15330;51.234;6.754;2024-02-21T06:28:56;16.45;;;7.65;;
28003;SDS011;15330;51.234;6.754;2024-02-21T06:31:22;21.27;;;7.43;;
28003;SDS011;15330;51.234;6.754;2024-02-21T06:33:47;17.10;;;7.15;;
28003;SDS011;15330;51.234;6.754;2024-02-21T06:36:13;19.58;;;7.57;;
28003;SDS011;15330;51.234;6.754;2024-02-21T06:38:38;28.38;;;8.55;;
28003;SDS011;15330;51.234;6.754;2024-02-21T06:41:04;17.42;;;7.10;;
28003;SDS011;15330;51.234;6.754;2024-02-21T06:43:29;19.65;;;7.70;;
28003;SDS011;15330;51.234;6.754;2024-02-21T06:45:54;21.65;;;7.82;;
28003;SDS011;15330;51.234;6.754;2024-02-21T06:48:21;27.08;;;8.40;;
28003;SDS011;15330;51.234;6.754;2024-02-21T06:50:47;18.73;;;7.47;;
28003;SDS011;15330;51.234;6.754;2024-02-21T06:53:12;23.17;;;7.97;;
28003;SDS011;15330;51.234;6.754;2024-02-21T06:55:38;22.15;;;7.93;;
28003;SDS011;15330;51.234;6.754;2024-02-21T06:58:04;17.27;;;7.63;;
28003;SDS011;15330;51.234;6.754;2024-02-21T07:00:29;17.05;;;7.38;;
28003;SDS011;15330;51.234;6.754;2024-02-21T07:02:55;18.90;;;7.47;;
28003;SDS011;15330;51.234;6.754;2024-02-21T07:05:20;18.45;;;7.60;;
28003;SDS011;15330;51.234;6.754;2024-02-21T07:07:46;16.75;;;7.30;;
28003;SDS011;15330;51.234;6.754;2024-02-21T07:10:11;20.52;;;7.85;;
28003;SDS011;15330;51.234;6.754;2024-02-21T07:12:36;17.13;;;7.50;;
28003;SDS011;15330;51.234;6.754;2024-02-21T07:15:04;21.23;;;7.53;;
28003;SDS011;15330;51.234;6.754;2024-02-21T07:17:30;15.73;;;7.32;;
28003;SDS011;15330;51.234;6.754;2024-02-21T07:19:55;19.15;;;7.60;;
28003;SDS011;15330;51.234;6.754;2024-02-21T07:22:24;18.33;;;6.82;;
28003;SDS011;15330;51.234;6.754;2024-02-21T07:24:49;20.92;;;7.20;;
28003;SDS011;15330;51.234;6.754;2024-02-21T07:27:15;19.10;;;6.07;;
28003;SDS011;15330;51.234;6.754;2024-02-21T07:29:40;16.77;;;6.45;;
28003;SDS011;15330;51.234;6.754;2024-02-21T07:32:06;15.55;;;6.40;;
28003;SDS011;15330;51.234;6.754;2024-02-21T07:34:31;15.10;;;6.57;;
28003;SDS011;15330;51.234;6.754;2024-02-21T07:36:57;18.02;;;6.45;;
28003;SDS011;15330;51.234;6.754;2024-02-21T07:39:22;12.70;;;5.40;;
28003;SDS011;15330;51.234;6.754;2024-02-21T07:41:48;20.20;;;6.97;;
28003;SDS011;15330;51.234;6.754;2024-02-21T07:44:14;14.18;;;5.95;;
28003;SDS011;15330;51.234;6.754;2024-02-21T07:46:40;17.10;;;6.40;;
28003;SDS011;15330;51.234;6.754;2024-02-21T07:49:05;17.58;;;6.95;;
28003;SDS011;15330;51.234;6.754;2024-02-21T07:51:30;16.55;;;6.68;;
28003;SDS011;15330;51.234;6.754;2024-02-21T07:53:56;16.27;;;6.75;;
28003;SDS011;15330;51.234;6.754;2024-02-21T07:56:21;20.27;;;7.10;;
28003;SDS011;15330;51.234;6.754;2024-02-21T07:58:47;25.65;;;7.40;;
28003;SDS011;15330;51.234;6.754;2024-02-21T08:01:17;21.17;;;6.20;;
28003;SDS011;15330;51.234;6.754;2024-02-21T08:03:45;25.50;;;7.07;;
28003;SDS011;15330;51.234;6.754;2024-02-21T08:06:11;14.35;;;5.93;;
28003;SDS011;15330;51.234;6.754;2024-02-21T08:08:38;18.77;;;6.97;;
28003;SDS011;15330;51.234;6.754;2024-02-21T08:11:03;29.67;;;6.68;;
28003;SDS011;15330;51.234;6.754;2024-02-21T08:13:29;14.10;;;6.53;;
28003;SDS011;15330;51.234;6.754;2024-02-21T08:15:54;17.25;;;5.80;;
28003;SDS011;15330;51.234;6.754;2024-02-21T08:18:19;19.42;;;6.30;;
28003;SDS011;15330;51.234;6.754;2024-02-21T08:20:45;14.73;;;6.03;;
28003;SDS011;15330;51.234;6.754;2024-02-21T08:23:10;10.45;;;5.55;;
28003;SDS011;15330;51.234;6.754;2024-02-21T08:25:36;14.38;;;5.70;;
28003;SDS011;15330;51.234;6.754;2024-02-21T08:28:01;17.95;;;6.75;;
28003;SDS011;15330;51.234;6.754;2024-02-21T08:30:27;24.77;;;7.05;;
28003;SDS011;15330;51.234;6.754;2024-02-21T08:32:52;20.88;;;7.50;;
28003;SDS011;15330;51.234;6.754;2024-02-21T08:35:19;18.15;;;7.25;;
28003;SDS011;15330;51.234;6.754;2024-02-21T08:37:45;17.60;;;6.43;;
28003;SDS011;15330;51.234;6.754;2024-02-21T08:40:13;22.00;;;7.10;;
28003;SDS011;15330;51.234;6.754;2024-02-21T08:42:42;21.52;;;7.25;;
28003;SDS011;15330;51.234;6.754;2024-02-21T08:45:08;19.52;;;6.82;;
28003;SDS011;15330;51.234;6.754;2024-02-21T08:47:34;17.33;;;7.15;;
28003;SDS011;15330;51.234;6.754;2024-02-21T08:50:01;17.63;;;6.38;;
28003;SDS011;15330;51.234;6.754;2024-02-21T08:52:27;17.42;;;7.25;;
28003;SDS011;15330;51.234;6.754;2024-02-21T08:54:52;20.48;;;7.50;;
28003;SDS011;15330;51.234;6.754;2024-02-21T08:57:18;19.85;;;6.45;;
28003;SDS011;15330;51.234;6.754;2024-02-21T08:59:44;20.88;;;6.90;;
28003;SDS011;15330;51.234;6.754;2024-02-21T09:02:10;14.13;;;6.25;;
28003;SDS011;15330;51.234;6.754;2024-02-21T09:04:35;21.00;;;6.38;;
28003;SDS011;15330;51.234;6.754;2024-02-21T09:07:00;12.15;;;5.20;;
28003;SDS011;15330;51.234;6.754;2024-02-21T09:09:26;17.33;;;5.90;;
28003;SDS011;15330;51.234;6.754;2024-02-21T09:11:53;11.60;;;6.05;;
28003;SDS011;15330;51.234;6.754;2024-02-21T09:14:18;12.25;;;5.40;;
28003;SDS011;15330;51.234;6.754;2024-02-21T09:16:44;13.98;;;5.25;;
28003;SDS011;15330;51.234;6.754;2024-02-21T09:19:10;15.52;;;5.40;;
28003;SDS011;15330;51.234;6.754;2024-02-21T09:21:36;17.60;;;6.20;;
28003;SDS011;15330;51.234;6.754;2024-02-21T09:24:02;20.98;;;7.47;;
28003;SDS011;15330;51.234;6.754;2024-02-21T09:26:28;18.83;;;6.53;;
28003;SDS011;15330;51.234;6.754;2024-02-21T09:28:53;16.65;;;8.23;;
28003;SDS011;15330;51.234;6.754;2024-02-21T09:31:19;21.95;;;9.20;;
28003;SDS011;15330;51.234;6.754;2024-02-21T09:33:44;23.30;;;8.35;;
28003;SDS011;15330;51.234;6.754;2024-02-21T09:36:10;15.35;;;8.07;;
28003;SDS011;15330;51.234;6.754;2024-02-21T09:38:35;22.42;;;8.23;;
28003;SDS011;15330;51.234;6.754;2024-02-21T09:41:08;14.55;;;6.35;;
28003;SDS011;15330;51.234;6.754;2024-02-21T09:43:43;14.38;;;5.38;;
28003;SDS011;15330;51.234;6.754;2024-02-21T09:46:13;15.70;;;5.38;;
28003;SDS011;15330;51.234;6.754;2024-02-21T09:51:49;13.73;;;5.22;;
28003;SDS011;15330;51.234;6.754;2024-02-21T09:54:17;13.27;;;5.32;;
28003;SDS011;15330;51.234;6.754;2024-02-21T09:56:46;13.02;;;5.22;;
28003;SDS011;15330;51.234;6.754;2024-02-21T09:59:13;14.20;;;5.28;;
28003;SDS011;15330;51.234;6.754;2024-02-21T10:01:41;14.05;;;5.40;;
28003;SDS011;15330;51.234;6.754;2024-02-21T10:04:11;11.15;;;5.28;;
28003;SDS011;15330;51.234;6.754;2024-02-21T10:06:37;11.82;;;5.40;;
28003;SDS011;15330;51.234;6.754;2024-02-21T10:09:04;13.75;;;5.63;;
28003;SDS011;15330;51.234;6.754;2024-02-21T10:11:31;11.52;;;5.82;;
28003;SDS011;15330;51.234;6.754;2024-02-21T10:14:06;15.85;;;5.32;;
28003;SDS011;15330;51.234;6.754;2024-02-21T10:16:32;11.25;;;5.50;;
28003;SDS011;15330;51.234;6.754;2024-02-21T10:18:58;14.18;;;4.63;;
28003;SDS011;15330;51.234;6.754;2024-02-21T10:21:24;10.00;;;4.45;;
28003;SDS011;15330;51.234;6.754;2024-02-21T10:23:49;11.57;;;4.45;;
28003;SDS011;15330;51.234;6.754;2024-02-21T10:26:16;12.68;;;4.57;;
28003;SDS011;15330;51.234;6.754;2024-02-21T10:28:43;12.32;;;4.82;;
28003;SDS011;15330;51.234;6.754;2024-02-21T10:31:11;12.85;;;5.03;;
28003;SDS011;15330;51.234;6.754;2024-02-21T10:33:53;10.52;;;4.53;;
28003;SDS011;15330;51.234;6.754;2024-02-21T10:36:30;13.45;;;4.70;;
28003;SDS011;15330;51.234;6.754;2024-02-21T10:38:56;10.80;;;5.00;;
28003;SDS011;15330;51.234;6.754;2024-02-21T10:41:22;10.85;;;4.43;;
28003;SDS011;15330;51.234;6.754;2024-02-21T10:43:52;9.38;;;4.25;;
28003;SDS011;15330;51.234;6.754;2024-02-21T10:46:19;11.45;;;4.38;;
28003;SDS011;15330;51.234;6.754;2024-02-21T10:48:46;11.70;;;4.50;;
28003;SDS011;15330;51.234;6.754;2024-02-21T10:58:47;9.55;;;4.50;;
28003;SDS011;15330;51.234;6.754;2024-02-21T11:01:13;11.95;;;4.60;;
28003;SDS011;15330;51.234;6.754;2024-02-21T11:03:41;9.95;;;4.18;;
28003;SDS011;15330;51.234;6.754;2024-02-21T11:06:09;16.73;;;4.60;;
28003;SDS011;15330;51.234;6.754;2024-02-21T11:08:38;11.30;;;4.85;;
28003;SDS011;15330;51.234;6.754;2024-02-21T11:11:05;9.80;;;4.43;;
28003;SDS011;15330;51.234;6.754;2024-02-21T11:13:31;11.40;;;4.45;;
28003;SDS011;15330;51.234;6.754;2024-02-21T11:16:08;12.38;;;5.00;;
28003;SDS011;15330;51.234;6.754;2024-02-21T11:18:38;15.45;;;5.35;;
28003;SDS011;15330;51.234;6.754;2024-02-21T11:21:04;13.50;;;4.82;;
28003;SDS011;15330;51.234;6.754;2024-02-21T11:23:30;12.40;;;4.90;;
28003;SDS011;15330;51.234;6.754;2024-02-21T11:26:08;15.23;;;5.20;;
28003;SDS011;15330;51.234;6.754;2024-02-21T11:28:34;14.52;;;4.90;;
28003;SDS011;15330;51.234;6.754;2024-02-21T11:31:11;12.93;;;5.28;;
28003;SDS011;15330;51.234;6.754;2024-02-21T11:33:40;16.08;;;5.00;;
28003;SDS011;15330;51.234;6.754;2024-02-21T11:36:07;17.77;;;5.05;;
28003;SDS011;15330;51.234;6.754;2024-02-21T11:38:33;16.80;;;4.50;;
28003;SDS011;15330;51.234;6.754;2024-02-21T11:40:59;11.23;;;4.55;;
28003;SDS011;15330;51.234;6.754;2024-02-21T11:43:24;10.40;;;4.63;;
28003;SDS011;15330;51.234;6.754;2024-02-21T11:45:50;15.07;;;5.15;;
28003;SDS011;15330;51.234;6.754;2024-02-21T11:48:23;12.50;;;5.15;;
28003;SDS011;15330;51.234;6.754;2024-02-21T11:50:55;13.02;;;4.72;;
28003;SDS011;15330;51.234;6.754;2024-02-21T11:53:21;13.38;;;4.75;;
28003;SDS011;15330;51.234;6.754;2024-02-21T11:55:47;10.35;;;4.18;;
28003;SDS011;15330;51.234;6.754;2024-02-21T11:58:13;13.73;;;4.28;;
28003;SDS011;15330;51.234;6.754;2024-02-21T12:00:38;14.20;;;4.78;;
28003;SDS011;15330;51.234;6.754;2024-02-21T12:03:05;11.38;;;4.32;;
28003;SDS011;15330;51.234;6.754;2024-02-21T12:05:30;8.18;;;3.72;;
28003;SDS011;15330;51.234;6.754;2024-02-21T12:07:57;14.35;;;4.63;;
28003;SDS011;15330;51.234;6.754;2024-02-21T12:10:23;15.65;;;4.18;;
28003;SDS011;15330;51.234;6.754;2024-02-21T12:12:49;11.95;;;4.28;;
28003;SDS011;15330;51.234;6.754;2024-02-21T12:15:17;10.45;;;3.97;;
28003;SDS011;15330;51.234;6.754;2024-02-21T12:17:43;20.27;;;4.10;;
28003;SDS011;15330;51.234;6.754;2024-02-21T12:20:09;9.85;;;3.30;;
28003;SDS011;15330;51.234;6.754;2024-02-21T12:22:38;12.50;;;4.13;;
28003;SDS011;15330;51.234;6.754;2024-02-21T12:25:04;7.82;;;3.17;;
28003;SDS011;15330;51.234;6.754;2024-02-21T12:27:40;12.40;;;4.30;;
28003;SDS011;15330;51.234;6.754;2024-02-21T12:30:06;15.18;;;3.80;;
28003;SDS011;15330;51.234;6.754;2024-02-21T12:32:35;11.07;;;4.20;;
28003;SDS011;15330;51.234;6.754;2024-02-21T12:35:00;15.52;;;3.80;;
28003;SDS011;15330;51.234;6.754;2024-02-21T12:37:26;12.52;;;3.88;;
28003;SDS011;15330;51.234;6.754;2024-02-21T12:39:51;13.52;;;4.30;;
28003;SDS011;15330;51.234;6.754;2024-02-21T12:42:17;6.25;;;3.70;;
28003;SDS011;15330;51.234;6.754;2024-02-21T12:44:42;12.85;;;4.10;;
28003;SDS011;15330;51.234;6.754;2024-02-21T12:47:08;12.95;;;3.33;;
28003;SDS011;15330;51.234;6.754;2024-02-21T12:49:33;11.68;;;4.22;;
28003;SDS011;15330;51.234;6.754;2024-02-21T12:51:59;13.90;;;3.47;;
28003;SDS011;15330;51.234;6.754;2024-02-21T12:54:24;8.68;;;3.65;;
28003;SDS011;15330;51.234;6.754;2024-02-21T12:56:51;10.63;;;4.47;;
28003;SDS011;15330;51.234;6.754;2024-02-21T12:59:16;8.43;;;3.42;;
28003;SDS011;15330;51.234;6.754;2024-02-21T13:01:42;9.73;;;3.38;;
28003;SDS011;15330;51.234;6.754;2024-02-21T13:04:07;11.15;;;4.03;;
28003;SDS011;15330;51.234;6.754;2024-02-21T13:06:32;11.05;;;3.50;;
28003;SDS011;15330;51.234;6.754;2024-02-21T13:08:58;13.50;;;4.50;;
28003;SDS011;15330;51.234;6.754;2024-02-21T13:11:24;10.15;;;3.75;;
28003;SDS011;15330;51.234;6.754;2024-02-21T13:13:52;10.73;;;4.13;;
28003;SDS011;15330;51.234;6.754;2024-02-21T13:16:18;11.82;;;4.00;;
28003;SDS011;15330;51.234;6.754;2024-02-21T13:18:43;9.98;;;3.78;;
28003;SDS011;15330;51.234;6.754;2024-02-21T13:21:10;11.82;;;3.83;;
28003;SDS011;15330;51.234;6.754;2024-02-21T13:23:35;8.95;;;4.18;;
28003;SDS011;15330;51.234;6.754;2024-02-21T13:26:01;11.23;;;4.82;;
28003;SDS011;15330;51.234;6.754;2024-02-21T13:28:26;13.88;;;4.60;;
28003;SDS011;15330;51.234;6.754;2024-02-21T13:30:52;10.40;;;3.65;;
28003;SDS011;15330;51.234;6.754;2024-02-21T13:33:18;12.45;;;4.88;;
28003;SDS011;15330;51.234;6.754;2024-02-21T13:35:43;12.30;;;4.60;;
28003;SDS011;15330;51.234;6.754;2024-02-21T13:38:09;13.25;;;4.57;;
28003;SDS011;15330;51.234;6.754;2024-02-21T13:40:35;12.23;;;4.75;;
28003;SDS011;15330;51.234;6.754;2024-02-21T13:43:00;13.65;;;4.15;;
28003;SDS011;15330;51.234;6.754;2024-02-21T13:45:26;15.00;;;4.47;;
28003;SDS011;15330;51.234;6.754;2024-02-21T13:47:51;12.05;;;4.35;;
28003;SDS011;15330;51.234;6.754;2024-02-21T13:50:17;11.98;;;4.28;;
28003;SDS011;15330;51.234;6.754;2024-02-21T13:52:44;9.75;;;4.18;;
28003;SDS011;15330;51.234;6.754;2024-02-21T13:55:10;10.52;;;4.65;;
28003;SDS011;15330;51.234;6.754;2024-02-21T13:57:35;11.13;;;4.20;;
28003;SDS011;15330;51.234;6.754;2024-02-21T14:00:02;11.82;;;4.78;;
28003;SDS011;15330;51.234;6.754;2024-02-21T14:02:30;13.15;;;4.93;;
28003;SDS011;15330;51.234;6.754;2024-02-21T14:04:56;10.18;;;4.30;;
28003;SDS011;15330;51.234;6.754;2024-02-21T14:07:21;14.50;;;4.55;;
28003;SDS011;15330;51.234;6.754;2024-02-21T14:09:47;15.48;;;4.75;;
28003;SDS011;15330;51.234;6.754;2024-02-21T14:12:12;12.80;;;4.03;;
28003;SDS011;15330;51.234;6.754;2024-02-21T14:14:38;16.35;;;4.47;;
28003;SDS011;15330;51.234;6.754;2024-02-21T14:17:03;9.73;;;4.07;;
28003;SDS011;15330;51.234;6.754;2024-02-21T14:19:29;12.00;;;3.80;;
28003;SDS011;15330;51.234;6.754;2024-02-21T14:21:55;12.05;;;4.05;;
28003;SDS011;15330;51.234;6.754;2024-02-21T14:24:21;8.45;;;3.97;;
28003;SDS011;15330;51.234;6.754;2024-02-21T14:26:47;15.38;;;4.53;;
28003;SDS011;15330;51.234;6.754;2024-02-21T14:29:13;13.25;;;4.10;;
28003;SDS011;15330;51.234;6.754;2024-02-21T14:31:39;9.45;;;4.25;;
28003;SDS011;15330;51.234;6.754;2024-02-21T14:34:05;14.27;;;4.53;;
28003;SDS011;15330;51.234;6.754;2024-02-21T14:36:32;15.00;;;4.20;;